createdAt,value
2019-01-04T00:00:36.221Z,23.8
2019-01-04T00:03:42.099Z,23.8
2019-01-04T00:06:48.069Z,23.9
2019-01-04T00:09:54.225Z,23.9
2019-01-04T00:13:00.191Z,23.9
2019-01-04T00:16:06.143Z,23.9
2019-01-04T00:19:12.217Z,23.9
2019-01-04T00:22:18.176Z,23.9
2019-01-04T00:25:24.056Z,23.9
2019-01-04T00:28:29.943Z,23.9
2019-01-04T00:31:35.884Z,23.9
2019-01-04T00:34:44.505Z,23.8
2019-01-04T00:37:50.530Z,23.8
2019-01-04T00:40:56.467Z,23.9
2019-01-04T00:44:02.441Z,23.9
2019-01-04T00:47:08.518Z,23.9
2019-01-04T00:50:14.402Z,23.9
2019-01-04T00:53:20.322Z,23.9
2019-01-04T00:56:26.288Z,23.9
2019-01-04T00:59:34.909Z,23.9
2019-01-04T01:02:40.782Z,23.9
2019-01-04T01:05:46.837Z,23.4
2019-01-04T01:08:52.715Z,23
2019-01-04T01:11:58.745Z,22.7
2019-01-04T01:15:04.700Z,22.5
2019-01-04T01:18:10.597Z,22.5
2019-01-04T01:21:16.550Z,22.4
2019-01-04T01:24:22.580Z,22.4
2019-01-04T01:27:28.515Z,22.3
2019-01-04T01:30:34.494Z,22.2
2019-01-04T01:33:40.464Z,22.2
2019-01-04T01:36:46.416Z,22.1
2019-01-04T01:39:52.482Z,22
2019-01-04T01:42:58.356Z,22.1
2019-01-04T01:46:04.405Z,22
2019-01-04T01:49:10.278Z,21.9
2019-01-04T01:52:16.321Z,21.9
2019-01-04T01:55:22.196Z,21.8
2019-01-04T01:58:28.140Z,21.8
2019-01-04T02:01:34.013Z,21.7
2019-01-04T02:04:39.957Z,21.7
2019-01-04T02:07:45.828Z,21.6
2019-01-04T02:10:51.781Z,21.6
2019-01-04T02:13:57.655Z,21.5
2019-01-04T02:17:03.683Z,21.5
2019-01-04T02:20:09.644Z,21.4
2019-01-04T02:23:15.607Z,21.4
2019-01-04T02:26:21.664Z,21.3
2019-01-04T02:29:27.605Z,21.2
2019-01-04T02:32:33.585Z,21.2
2019-01-04T02:35:39.641Z,21.2
2019-01-04T02:38:45.513Z,21.1
2019-01-04T02:41:51.458Z,21.1
2019-01-04T02:44:57.518Z,21
2019-01-04T02:48:03.482Z,21
2019-01-04T02:51:09.541Z,20.9
2019-01-04T02:54:15.606Z,20.9
2019-01-04T02:57:21.499Z,21
2019-01-04T03:00:27.430Z,20.9
2019-01-04T03:03:33.364Z,20.9
2019-01-04T03:06:39.443Z,20.8
2019-01-04T03:09:45.501Z,20.8
2019-01-04T03:12:51.565Z,20.8
2019-01-04T03:15:57.503Z,20.9
2019-01-04T03:19:03.481Z,20.8
2019-01-04T03:22:09.351Z,20.8
2019-01-04T03:25:15.296Z,20.8
2019-01-04T03:28:21.356Z,20.8
2019-01-04T03:31:30.186Z,20.7
2019-01-04T03:34:36.252Z,20.7
2019-01-04T03:37:42.190Z,20.8
2019-01-04T03:40:48.276Z,20.7
2019-01-04T03:43:54.335Z,20.7
2019-01-04T03:47:00.276Z,20.7
2019-01-04T03:50:06.358Z,20.7
2019-01-04T03:53:12.409Z,20.7
2019-01-04T03:56:18.301Z,20.6
2019-01-04T03:59:24.229Z,20.6
2019-01-04T04:02:30.107Z,20.5
2019-01-04T04:05:36.044Z,20.5
2019-01-04T04:08:42.105Z,20.4
2019-01-04T04:11:47.989Z,20.4
2019-01-04T04:14:53.927Z,20.4
2019-01-04T04:17:59.797Z,20.4
2019-01-04T04:21:05.750Z,20.4
2019-01-04T04:24:11.807Z,20.4
2019-01-04T04:27:17.867Z,20.5
2019-01-04T04:30:23.936Z,21
2019-01-04T04:33:29.994Z,21
2019-01-04T04:36:36.153Z,20.5
2019-01-04T04:39:42.119Z,20.5
2019-01-04T04:42:48.178Z,20.5
2019-01-04T04:45:54.185Z,20.6
2019-01-04T04:49:00.197Z,20.6
2019-01-04T04:52:06.258Z,21
2019-01-04T04:55:13.135Z,20.9
2019-01-04T04:58:19.093Z,20.7
2019-01-04T05:01:25.062Z,20.6
2019-01-04T05:04:31.114Z,20.8
2019-01-04T05:07:37.077Z,20.8
2019-01-04T05:10:43.135Z,20.9
2019-01-04T05:13:49.013Z,20.8
2019-01-04T05:16:54.951Z,20.6
2019-01-04T05:20:00.963Z,20.6
2019-01-04T05:23:06.890Z,20.6
2019-01-04T05:26:12.766Z,20.6
2019-01-04T05:29:18.793Z,20.5
2019-01-04T05:32:24.852Z,20.5
2019-01-04T05:35:30.724Z,20.4
2019-01-04T05:38:36.773Z,22.1
2019-01-04T05:41:42.730Z,21.8
2019-01-04T05:44:48.791Z,21.6
2019-01-04T05:47:54.855Z,22.1
2019-01-04T05:51:00.811Z,21.8
2019-01-04T05:54:06.686Z,21.2
2019-01-04T05:57:15.191Z,21.3
2019-01-04T06:00:24.132Z,20.8
2019-01-04T06:03:30.492Z,21.4
2019-01-04T06:06:36.360Z,21.3
2019-01-04T06:09:42.303Z,21
2019-01-04T06:12:48.265Z,21.2
2019-01-04T06:15:54.161Z,21
2019-01-04T06:19:00.185Z,21
2019-01-04T06:22:06.154Z,21
2019-01-04T06:25:12.019Z,20.8
2019-01-04T06:28:17.993Z,21.1
2019-01-04T06:31:24.020Z,20.5
2019-01-04T06:34:29.892Z,21
2019-01-04T06:37:35.837Z,20.9
2019-01-04T06:40:41.729Z,20.5
2019-01-04T06:43:47.758Z,20.6
2019-01-04T06:46:53.819Z,20.3
2019-01-04T06:49:59.753Z,20.4
2019-01-04T06:53:08.614Z,21.2
2019-01-04T06:56:14.674Z,21.1
2019-01-04T06:59:20.727Z,21
2019-01-04T07:02:26.797Z,20.5
2019-01-04T07:05:32.755Z,20.6
2019-01-04T07:08:38.718Z,23.3
2019-01-04T07:11:44.670Z,21.3
2019-01-04T07:14:51.647Z,20.8
2019-01-04T07:17:57.614Z,20.5
2019-01-04T07:21:03.605Z,20.9
2019-01-04T07:24:09.585Z,21.1
2019-01-04T07:27:15.710Z,21
2019-01-04T07:30:21.693Z,20.5
2019-01-04T07:33:27.821Z,20.9
2019-01-04T07:36:33.899Z,20.9
2019-01-04T07:39:39.840Z,20.6
2019-01-04T07:42:45.731Z,20.7
2019-01-04T07:45:52.658Z,21.1
2019-01-04T07:48:59.585Z,20.8
2019-01-04T07:52:07.685Z,20.8
2019-01-04T07:55:13.738Z,20.9
2019-01-04T07:58:19.696Z,20.9
2019-01-04T08:01:25.658Z,20.7
2019-01-04T08:04:32.025Z,21.3
2019-01-04T08:07:37.899Z,21
2019-01-04T08:10:44.458Z,21
2019-01-04T08:13:52.875Z,20.9
2019-01-04T08:16:58.835Z,20.7
2019-01-04T08:20:04.709Z,20.8
2019-01-04T08:23:10.755Z,20.5
2019-01-04T08:26:16.628Z,20.4
2019-01-04T08:29:22.671Z,20.6
2019-01-04T08:32:28.891Z,20.3
2019-01-04T08:35:34.904Z,20.3
2019-01-04T08:38:40.955Z,20.3
2019-01-04T08:41:46.914Z,21
2019-01-04T08:44:52.980Z,20.7
2019-01-04T08:47:58.940Z,20.5
2019-01-04T08:51:04.817Z,20.6
2019-01-04T08:54:10.861Z,21.2
2019-01-04T08:57:16.737Z,20.8
2019-01-04T09:00:22.759Z,20.4
2019-01-04T09:03:28.732Z,21
2019-01-04T09:06:34.792Z,20.5
2019-01-04T09:09:40.749Z,20.5
2019-01-04T09:12:46.821Z,20.9
2019-01-04T09:15:52.705Z,21
2019-01-04T09:18:58.589Z,20.8
2019-01-04T09:22:04.597Z,20.8
2019-01-04T09:25:10.563Z,20.7
2019-01-04T09:28:18.760Z,20.7
2019-01-04T09:31:24.728Z,20.9
2019-01-04T09:34:30.892Z,20.7
2019-01-04T09:37:36.951Z,20.6
2019-01-04T09:40:42.938Z,20.6
2019-01-04T09:43:50.092Z,20.4
2019-01-04T09:46:57.057Z,20.3
2019-01-04T09:50:03.969Z,20.3
2019-01-04T09:53:10.046Z,20.3
2019-01-04T09:56:16.101Z,20.4
2019-01-04T09:59:21.968Z,20.4
2019-01-04T10:02:29.128Z,20.8
2019-01-04T10:05:35.141Z,20.5
2019-01-04T10:08:45.562Z,20.9
2019-01-04T10:11:52.675Z,20.3
2019-01-04T10:14:58.709Z,20.3
2019-01-04T10:18:04.668Z,20.3
2019-01-04T10:21:10.629Z,20.8
2019-01-04T10:24:16.587Z,20.8
2019-01-04T10:27:22.456Z,20.9
2019-01-04T10:30:28.408Z,20.3
2019-01-04T10:33:34.299Z,20.4
2019-01-04T10:36:43.080Z,20.9
2019-01-04T10:39:48.956Z,21
2019-01-04T10:42:55.042Z,20.4
2019-01-04T10:46:01.068Z,20.8
2019-01-04T10:49:07.022Z,20.9
2019-01-04T10:52:12.911Z,20.5
2019-01-04T10:55:18.853Z,20.6
2019-01-04T10:58:24.740Z,20.3
2019-01-04T11:01:30.754Z,20.8
2019-01-04T11:04:36.853Z,20.4
2019-01-04T11:07:42.880Z,20.2
2019-01-04T11:10:48.955Z,20.1
2019-01-04T11:13:55.002Z,21.5
2019-01-04T11:17:00.977Z,20.4
2019-01-04T11:20:06.873Z,20.8
2019-01-04T11:23:14.011Z,20.7
2019-01-04T11:26:20.079Z,20.3
2019-01-04T11:29:26.068Z,20.7
2019-01-04T11:32:32.069Z,22.7
2019-01-04T11:35:39.076Z,20.6
2019-01-04T11:38:44.966Z,20.8
2019-01-04T11:41:50.894Z,21.1
2019-01-04T11:44:56.962Z,23.2
2019-01-04T11:48:02.959Z,20.8
2019-01-04T11:51:09.284Z,20.6
2019-01-04T11:54:15.308Z,20.3
2019-01-04T11:57:21.196Z,20.3
2019-01-04T12:00:27.429Z,20.2
2019-01-04T12:03:33.356Z,20.8
2019-01-04T12:06:39.290Z,20.4
2019-01-04T12:09:47.808Z,20.6
2019-01-04T12:12:55.933Z,20.4
2019-01-04T12:16:03.207Z,20.6
2019-01-04T12:19:09.369Z,20.8
2019-01-04T12:22:15.341Z,21
2019-01-04T12:25:21.414Z,20.4
2019-01-04T12:28:27.459Z,20.7
2019-01-04T12:31:33.518Z,20.4
2019-01-04T12:34:39.592Z,20.5
2019-01-04T12:37:45.747Z,20.4
2019-01-04T12:40:51.684Z,20.5
2019-01-04T12:43:59.206Z,20.5
2019-01-04T12:47:05.155Z,20.5
2019-01-04T12:50:11.066Z,20.8
2019-01-04T12:53:17.182Z,20.5
2019-01-04T12:56:23.341Z,20.5
2019-01-04T12:59:29.300Z,20.5
2019-01-04T13:02:35.182Z,20.5
2019-01-04T13:05:41.219Z,20.6
2019-01-04T13:08:47.181Z,20.7
2019-01-04T13:11:53.142Z,20.7
2019-01-04T13:14:59.098Z,20.7
2019-01-04T13:18:05.159Z,21.6
2019-01-04T13:21:11.049Z,20.7
2019-01-04T13:24:17.283Z,21.8
2019-01-04T13:27:23.244Z,21.7
2019-01-04T13:30:29.303Z,21.5
2019-01-04T13:33:35.366Z,21.3
2019-01-04T13:36:41.244Z,20.7
2019-01-04T13:39:47.285Z,21.3
2019-01-04T13:42:53.173Z,22.3
2019-01-04T13:45:59.217Z,20.9
2019-01-04T13:49:05.166Z,20.8
2019-01-04T13:52:11.236Z,20.5
2019-01-04T13:55:17.204Z,20.4
2019-01-04T13:58:24.297Z,20.4
2019-01-04T14:01:30.578Z,20.7
2019-01-04T14:04:36.880Z,20.3
2019-01-04T14:07:44.016Z,20.4
2019-01-04T14:10:50.057Z,20.2
2019-01-04T14:13:56.014Z,20.3
2019-01-04T14:17:02.080Z,20.2
2019-01-04T14:20:10.609Z,20.2
2019-01-04T14:23:16.569Z,20.2
2019-01-04T14:26:22.525Z,20.2
2019-01-04T14:29:28.477Z,20.2
2019-01-04T14:32:34.455Z,20.1
2019-01-04T14:35:40.822Z,20.1
2019-01-04T14:38:46.987Z,20.3
2019-01-04T14:41:54.690Z,20.2
2019-01-04T14:45:01.879Z,20.3
2019-01-04T14:48:07.830Z,20.3
2019-01-04T14:51:13.780Z,21.5
2019-01-04T14:54:20.881Z,20.7
2019-01-04T14:57:27.343Z,20.4
2019-01-04T15:00:33.398Z,20.6
2019-01-04T15:03:39.389Z,20.3
2019-01-04T15:06:45.478Z,20.4
2019-01-04T15:09:51.484Z,20.5
2019-01-04T15:12:57.548Z,20.6
2019-01-04T15:16:03.413Z,20.7
2019-01-04T15:19:09.468Z,20.3
2019-01-04T15:22:15.531Z,20.1
2019-01-04T15:25:21.488Z,20.2
2019-01-04T15:28:27.438Z,20.1
2019-01-04T15:31:35.342Z,20
2019-01-04T15:34:41.531Z,20.1
2019-01-04T15:37:47.442Z,20.4
2019-01-04T15:40:53.432Z,20
2019-01-04T15:43:59.487Z,20
2019-01-04T15:47:05.547Z,20
2019-01-04T15:50:11.510Z,19.8
2019-01-04T15:53:17.622Z,20
2019-01-04T15:56:23.544Z,19.8
2019-01-04T15:59:29.692Z,19.7
2019-01-04T16:02:35.637Z,20.5
2019-01-04T16:05:41.720Z,19.9
2019-01-04T16:08:50.642Z,19.7
2019-01-04T16:11:59.279Z,19.7
2019-01-04T16:15:05.328Z,19.7
2019-01-04T16:18:11.294Z,19.4
2019-01-04T16:21:17.348Z,19.4
2019-01-04T16:24:23.306Z,19.7
2019-01-04T16:27:29.194Z,19.6
2019-01-04T16:30:35.228Z,19.4
2019-01-04T16:33:41.185Z,20.1
2019-01-04T16:36:47.455Z,19.8
2019-01-04T16:39:53.343Z,19.7
2019-01-04T16:42:59.375Z,19.7
2019-01-04T16:46:05.355Z,19.6
2019-01-04T16:49:11.225Z,19.3
2019-01-04T16:52:17.258Z,21.7
2019-01-04T16:55:23.225Z,20.8
2019-01-04T16:58:29.167Z,19.9
2019-01-04T17:01:35.230Z,19.8
2019-01-04T17:04:41.104Z,20.3
2019-01-04T17:07:47.063Z,19.6
2019-01-04T17:10:53.111Z,19.8
2019-01-04T17:13:59.070Z,19.5
2019-01-04T17:17:05.029Z,19.6
2019-01-04T17:20:10.985Z,19.6
2019-01-04T17:23:16.869Z,19.9
2019-01-04T17:26:22.802Z,19.9
2019-01-04T17:29:28.767Z,19.9
2019-01-04T17:32:34.830Z,19.6
2019-01-04T17:35:40.787Z,19.9
2019-01-04T17:38:46.661Z,19.6
2019-01-04T17:41:52.704Z,19.7
2019-01-04T17:44:58.601Z,19.6
2019-01-04T17:48:04.632Z,19.5
2019-01-04T17:51:10.591Z,19.5
2019-01-04T17:54:16.545Z,19.4
2019-01-04T17:57:25.578Z,19.4
2019-01-04T18:00:31.639Z,19.3
2019-01-04T18:03:37.630Z,19.6
2019-01-04T18:06:43.556Z,19.6
2019-01-04T18:09:49.515Z,19.8
2019-01-04T18:12:55.479Z,19.9
2019-01-04T18:16:01.431Z,20
2019-01-04T18:19:07.320Z,20.1
2019-01-04T18:22:13.248Z,20
2019-01-04T18:25:19.208Z,20.1
2019-01-04T18:28:25.094Z,20.3
2019-01-04T18:31:30.985Z,20.2
2019-01-04T18:34:36.860Z,20.3
2019-01-04T18:37:42.841Z,20.2
2019-01-04T18:40:48.807Z,20.2
2019-01-04T18:43:54.694Z,20.2
2019-01-04T18:47:00.727Z,20.2
2019-01-04T18:50:06.678Z,20.3
2019-01-04T18:53:12.640Z,20.1
2019-01-04T18:56:18.509Z,20.1
2019-01-04T18:59:24.465Z,20.1
2019-01-04T19:02:30.417Z,20.1
2019-01-04T19:05:36.333Z,20.1
2019-01-04T19:08:42.242Z,20.2
2019-01-04T19:11:48.202Z,20.1
2019-01-04T19:14:54.162Z,20
2019-01-04T19:18:00.036Z,20
2019-01-04T19:21:06.074Z,19.9
2019-01-04T19:24:12.035Z,20
2019-01-04T19:27:17.996Z,20.1
2019-01-04T19:30:24.053Z,20.3
2019-01-04T19:33:29.926Z,20.4
2019-01-04T19:36:35.858Z,20.6
2019-01-04T19:39:41.829Z,20.6
2019-01-04T19:42:47.795Z,20.7
2019-01-04T19:45:53.749Z,20.8
2019-01-04T19:48:59.707Z,20.8
2019-01-04T19:52:05.667Z,21
2019-01-04T19:55:11.561Z,21.1
2019-01-04T19:58:17.440Z,20.9
2019-01-04T20:01:23.341Z,21
2019-01-04T20:04:29.211Z,21.1
2019-01-04T20:07:36.387Z,21.1
2019-01-04T20:10:42.346Z,21.2
2019-01-04T20:13:48.311Z,21.2
2019-01-04T20:16:54.375Z,21.2
2019-01-04T20:20:00.334Z,21.4
2019-01-04T20:23:06.293Z,21.3
2019-01-04T20:26:12.249Z,21.3
2019-01-04T20:29:18.206Z,21.3
2019-01-04T20:32:24.079Z,21.3
2019-01-04T20:35:30.036Z,21.4
2019-01-04T20:38:38.984Z,21.5
2019-01-04T20:41:44.913Z,21.5
2019-01-04T20:44:50.782Z,21.6
2019-01-04T20:47:56.739Z,21.6
2019-01-04T20:51:02.599Z,21.6
2019-01-04T20:54:08.568Z,21.6
2019-01-04T20:57:14.415Z,21.6
2019-01-04T21:00:20.368Z,21.6
2019-01-04T21:03:26.328Z,21.8
2019-01-04T21:06:33.100Z,21.8
2019-01-04T21:09:39.065Z,21.8
2019-01-04T21:12:47.785Z,21.8
2019-01-04T21:15:53.744Z,22
2019-01-04T21:18:59.614Z,22
2019-01-04T21:22:05.651Z,22
2019-01-04T21:25:11.598Z,22
2019-01-04T21:28:17.585Z,22
2019-01-04T21:31:23.457Z,22.1
2019-01-04T21:34:29.399Z,22
2019-01-04T21:37:35.358Z,22
2019-01-04T21:40:41.230Z,22
2019-01-04T21:43:47.178Z,22
2019-01-04T21:46:53.046Z,22.1
2019-01-04T21:49:58.998Z,22.2
2019-01-04T21:53:05.160Z,22.2
2019-01-04T21:56:11.118Z,22.2
2019-01-04T21:59:17.076Z,22.3
2019-01-04T22:02:25.608Z,22.3
2019-01-04T22:05:31.555Z,22.3
2019-01-04T22:08:37.424Z,22.4
2019-01-04T22:11:43.381Z,22.3
2019-01-04T22:14:49.335Z,22.3
2019-01-04T22:17:55.295Z,22.3
2019-01-04T22:21:01.251Z,22.4
2019-01-04T22:24:07.121Z,22.4
2019-01-04T22:27:13.073Z,22.5
2019-01-04T22:30:19.035Z,22.5
2019-01-04T22:33:24.896Z,22.6
2019-01-04T22:36:30.860Z,22.6
2019-01-04T22:39:36.907Z,22.5
2019-01-04T22:42:42.776Z,22.5
2019-01-04T22:45:52.717Z,22.6
2019-01-04T22:48:58.584Z,22.6
2019-01-04T22:52:04.532Z,22.5
2019-01-04T22:55:10.400Z,22.7
2019-01-04T22:58:16.350Z,22.6
2019-01-04T23:01:22.320Z,22.6
2019-01-04T23:04:28.180Z,22.7
2019-01-04T23:07:34.065Z,22.7
2019-01-04T23:10:40.197Z,22.8
2019-01-04T23:13:46.159Z,22.8
2019-01-04T23:16:52.230Z,22.7
2019-01-04T23:19:58.174Z,22.9
2019-01-04T23:23:04.232Z,22.9
2019-01-04T23:26:12.499Z,22.8
2019-01-04T23:29:24.345Z,22.8
2019-01-04T23:32:30.406Z,22.8
2019-01-04T23:35:36.485Z,22.8
2019-01-04T23:38:42.338Z,22.8
2019-01-04T23:41:48.286Z,22.8
2019-01-04T23:44:54.246Z,22.9
2019-01-04T23:48:05.948Z,22.8
2019-01-04T23:51:11.805Z,22.9
2019-01-04T23:54:17.864Z,22.9
2019-01-04T23:57:23.823Z,22.9
